createdAt,value
2022-12-31T00:00:33.027Z,1.45
2022-12-31T00:01:34.678Z,1.75
2022-12-31T00:02:36.461Z,1.80
2022-12-31T00:03:39.013Z,1.67
2022-12-31T00:04:40.643Z,1.45
2022-12-31T00:05:42.264Z,1.45
2022-12-31T00:06:43.872Z,1.40
2022-12-31T00:07:45.533Z,1.42
2022-12-31T00:08:48.539Z,1.70
2022-12-31T00:09:50.220Z,1.38
2022-12-31T00:10:52.101Z,1.40
2022-12-31T00:11:53.689Z,1.55
2022-12-31T00:12:55.399Z,1.50
2022-12-31T00:13:57.849Z,1.30
2022-12-31T00:14:59.570Z,1.20
2022-12-31T00:16:13.222Z,1.40
2022-12-31T00:17:14.918Z,1.48
2022-12-31T00:18:16.534Z,1.08
2022-12-31T00:19:18.124Z,1.60
2022-12-31T00:20:19.711Z,1.63
2022-12-31T00:21:22.605Z,1.17
2022-12-31T00:22:24.350Z,1.30
2022-12-31T00:23:25.960Z,1.20
2022-12-31T00:24:30.935Z,1.20
2022-12-31T00:25:35.197Z,1.15
2022-12-31T00:26:36.941Z,1.27
2022-12-31T00:27:38.490Z,1.30
2022-12-31T00:28:40.805Z,1.15
2022-12-31T00:29:42.378Z,1.30
2022-12-31T00:30:43.976Z,1.10
2022-12-31T00:31:45.607Z,1.10
2022-12-31T00:32:47.282Z,1.10
2022-12-31T00:33:49.556Z,1.25
2022-12-31T00:34:51.178Z,0.90
2022-12-31T00:35:52.726Z,1.20
2022-12-31T00:36:54.399Z,1.20
2022-12-31T00:37:55.971Z,1.00
2022-12-31T00:38:59.200Z,0.90
2022-12-31T00:40:00.837Z,1.02
2022-12-31T00:41:02.667Z,1.00
2022-12-31T00:42:04.463Z,1.10
2022-12-31T00:43:06.032Z,1.10
2022-12-31T00:44:07.632Z,0.90
2022-12-31T00:45:09.584Z,1.00
2022-12-31T00:46:12.093Z,0.98
2022-12-31T00:47:13.857Z,0.90
2022-12-31T00:48:15.430Z,0.93
2022-12-31T00:49:17.190Z,1.20
2022-12-31T00:50:18.761Z,1.00
2022-12-31T00:51:22.781Z,1.00
2022-12-31T00:52:24.369Z,1.20
2022-12-31T00:53:26.491Z,1.15
2022-12-31T00:54:28.092Z,1.30
2022-12-31T00:55:30.857Z,1.27
2022-12-31T00:56:32.964Z,1.30
2022-12-31T00:57:34.570Z,1.00
2022-12-31T00:58:36.434Z,1.33
2022-12-31T00:59:37.998Z,1.17
2022-12-31T01:00:39.675Z,1.20
2022-12-31T01:01:42.603Z,0.93
2022-12-31T01:02:44.436Z,1.17
2022-12-31T01:03:47.219Z,1.20
2022-12-31T01:04:48.961Z,1.02
2022-12-31T01:05:50.603Z,1.00
2022-12-31T01:06:52.195Z,1.17
2022-12-31T01:07:53.834Z,0.80
2022-12-31T01:08:55.903Z,1.00
2022-12-31T01:09:57.457Z,0.90
2022-12-31T01:11:18.373Z,0.90
2022-12-31T01:12:19.982Z,0.90
2022-12-31T01:13:21.638Z,0.75
2022-12-31T01:14:23.389Z,0.90
2022-12-31T01:15:25.045Z,1.10
2022-12-31T01:16:30.110Z,0.90
2022-12-31T01:17:31.847Z,0.95
2022-12-31T01:18:33.471Z,1.00
2022-12-31T01:19:35.055Z,1.20
2022-12-31T01:20:39.067Z,0.80
2022-12-31T01:21:41.841Z,0.90
2022-12-31T01:22:43.416Z,1.10
2022-12-31T01:23:45.567Z,0.90
2022-12-31T01:24:47.171Z,0.88
2022-12-31T01:25:48.748Z,0.80
2022-12-31T01:26:51.406Z,0.93
2022-12-31T01:27:53.308Z,0.88
2022-12-31T01:28:55.170Z,1.10
2022-12-31T01:29:56.757Z,0.90
2022-12-31T01:30:59.011Z,0.85
2022-12-31T01:32:00.607Z,0.82
2022-12-31T01:33:02.222Z,0.90
2022-12-31T01:34:04.627Z,0.80
2022-12-31T01:35:06.591Z,0.70
2022-12-31T01:36:12.263Z,0.90
2022-12-31T01:37:13.821Z,0.70
2022-12-31T01:38:15.521Z,0.82
2022-12-31T01:39:17.403Z,0.80
2022-12-31T01:40:19.060Z,0.90
2022-12-31T01:41:26.347Z,0.70
2022-12-31T01:42:27.913Z,0.80
2022-12-31T01:44:07.329Z,0.80
2022-12-31T01:45:14.078Z,0.70
2022-12-31T01:46:47.778Z,0.70
2022-12-31T01:47:53.380Z,0.60
2022-12-31T01:49:01.258Z,0.60
2022-12-31T01:50:22.974Z,0.90
2022-12-31T01:51:27.122Z,0.77
2022-12-31T01:52:36.339Z,0.70
2022-12-31T01:53:40.816Z,0.60
2022-12-31T01:55:02.549Z,1.55
2022-12-31T01:56:04.459Z,0.70
2022-12-31T01:57:07.790Z,0.70
2022-12-31T01:58:18.907Z,0.52
2022-12-31T01:59:22.826Z,0.60
2022-12-31T02:00:24.520Z,0.50
2022-12-31T02:01:30.937Z,0.60
2022-12-31T02:02:32.855Z,0.50
2022-12-31T02:03:35.047Z,0.60
2022-12-31T02:04:36.824Z,0.50
2022-12-31T02:05:54.428Z,0.60
2022-12-31T02:07:02.446Z,0.60
2022-12-31T02:08:05.456Z,0.60
2022-12-31T02:09:07.874Z,0.50
2022-12-31T02:10:10.518Z,0.60
2022-12-31T02:11:20.784Z,0.60
2022-12-31T02:12:22.892Z,0.50
2022-12-31T02:13:24.591Z,0.50
2022-12-31T02:14:31.565Z,0.60
2022-12-31T02:15:54.520Z,0.60
2022-12-31T02:17:27.234Z,0.52
2022-12-31T02:18:42.504Z,0.63
2022-12-31T02:20:00.429Z,0.50
2022-12-31T02:21:24.315Z,0.50
2022-12-31T02:22:48.775Z,0.50
2022-12-31T02:24:22.500Z,0.60
2022-12-31T02:25:57.039Z,0.50
2022-12-31T02:27:07.645Z,0.50
2022-12-31T02:28:31.269Z,0.60
2022-12-31T02:29:51.699Z,0.40
2022-12-31T02:31:03.710Z,0.40
2022-12-31T02:32:17.136Z,0.50
2022-12-31T02:33:32.300Z,0.50
2022-12-31T02:34:58.957Z,0.50
2022-12-31T02:36:11.003Z,0.50
2022-12-31T02:37:15.067Z,0.50
2022-12-31T02:38:24.487Z,0.50
2022-12-31T02:39:26.727Z,0.60
2022-12-31T02:40:28.775Z,0.60
2022-12-31T02:41:49.012Z,0.50
2022-12-31T02:42:55.327Z,0.63
2022-12-31T02:43:57.389Z,0.50
2022-12-31T02:44:59.031Z,0.50
2022-12-31T02:46:21.262Z,0.50
2022-12-31T02:47:31.734Z,0.50
2022-12-31T02:49:08.994Z,0.50
2022-12-31T02:50:35.479Z,0.57
2022-12-31T02:51:50.295Z,0.50
2022-12-31T02:53:20.143Z,0.50
2022-12-31T02:54:40.755Z,0.50
2022-12-31T02:55:48.111Z,0.57
2022-12-31T02:57:16.843Z,0.50
2022-12-31T02:59:05.529Z,0.43
2022-12-31T03:00:39.032Z,0.50
2022-12-31T03:02:05.852Z,0.50
2022-12-31T03:03:08.857Z,0.50
2022-12-31T03:04:30.773Z,0.50
2022-12-31T03:05:36.970Z,0.40
2022-12-31T03:06:39.443Z,0.50
2022-12-31T03:07:42.601Z,0.50
2022-12-31T03:09:02.967Z,0.50
2022-12-31T03:10:04.914Z,0.50
2022-12-31T03:11:26.471Z,0.50
2022-12-31T03:12:48.192Z,0.50
2022-12-31T03:13:49.903Z,0.60
2022-12-31T03:14:51.517Z,0.40
2022-12-31T03:15:53.105Z,0.40
2022-12-31T03:16:54.702Z,0.52
2022-12-31T03:18:06.707Z,0.53
2022-12-31T03:19:27.114Z,0.50
2022-12-31T03:21:00.007Z,0.50
2022-12-31T03:22:20.544Z,0.50
2022-12-31T03:23:25.788Z,0.50
2022-12-31T03:24:45.885Z,0.40
2022-12-31T03:25:48.039Z,0.50
2022-12-31T03:26:49.611Z,0.50
2022-12-31T03:27:51.978Z,0.50
2022-12-31T03:28:53.836Z,0.52
2022-12-31T03:29:55.409Z,0.50
2022-12-31T03:31:02.297Z,0.50
2022-12-31T03:32:04.125Z,0.40
2022-12-31T03:33:07.353Z,0.40
2022-12-31T03:34:08.981Z,0.40
2022-12-31T03:35:13.134Z,0.50
2022-12-31T03:36:15.385Z,0.47
2022-12-31T03:37:16.953Z,0.50
2022-12-31T03:38:19.470Z,0.50
2022-12-31T03:39:21.089Z,0.73
2022-12-31T03:40:24.546Z,0.45
2022-12-31T03:41:26.125Z,0.60
2022-12-31T03:42:27.703Z,0.55
2022-12-31T03:43:29.322Z,0.50
2022-12-31T03:44:30.899Z,0.50
2022-12-31T03:45:32.598Z,0.60
2022-12-31T03:46:34.177Z,0.47
2022-12-31T03:47:36.265Z,0.60
2022-12-31T03:48:37.917Z,0.60
2022-12-31T03:49:39.543Z,0.50
2022-12-31T03:50:41.129Z,0.50
2022-12-31T03:51:42.762Z,0.50
2022-12-31T03:52:44.614Z,0.60
2022-12-31T03:53:46.199Z,0.50
2022-12-31T03:54:47.846Z,0.60
2022-12-31T03:55:53.495Z,0.50
2022-12-31T03:56:59.925Z,0.50
2022-12-31T03:58:02.087Z,0.50
2022-12-31T03:59:03.669Z,0.50
2022-12-31T04:00:08.251Z,0.63
2022-12-31T04:01:09.926Z,0.50
2022-12-31T04:02:11.794Z,0.50
2022-12-31T04:03:13.553Z,0.50
2022-12-31T04:04:15.176Z,0.50
2022-12-31T04:05:18.108Z,0.50
2022-12-31T04:06:19.697Z,0.70
2022-12-31T04:07:21.304Z,0.50
2022-12-31T04:08:23.616Z,0.60
2022-12-31T04:09:25.182Z,0.50
2022-12-31T04:10:26.804Z,0.50
2022-12-31T04:11:28.376Z,0.50
2022-12-31T04:12:30.008Z,0.50
2022-12-31T04:13:31.649Z,0.50
2022-12-31T04:14:33.372Z,0.50
2022-12-31T04:15:35.017Z,0.50
2022-12-31T04:16:36.611Z,0.50
2022-12-31T04:17:38.242Z,0.50
2022-12-31T04:18:39.823Z,0.50
2022-12-31T04:19:41.427Z,0.60
2022-12-31T04:20:43.104Z,0.57
2022-12-31T04:21:44.747Z,0.70
2022-12-31T04:22:46.360Z,0.50
2022-12-31T04:23:47.947Z,0.60
2022-12-31T04:24:49.553Z,0.70
2022-12-31T04:25:51.134Z,0.77
2022-12-31T04:26:52.725Z,0.57
2022-12-31T04:27:54.308Z,0.50
2022-12-31T04:28:56.031Z,0.60
2022-12-31T04:29:57.669Z,0.73
2022-12-31T04:30:59.280Z,0.53
2022-12-31T04:32:01.270Z,0.57
2022-12-31T04:33:02.884Z,0.50
2022-12-31T04:34:04.483Z,0.50
2022-12-31T04:35:06.721Z,0.50
2022-12-31T04:36:08.752Z,0.50
2022-12-31T04:37:10.361Z,0.50
2022-12-31T04:38:11.950Z,0.50
2022-12-31T04:39:13.525Z,0.50
2022-12-31T04:40:15.123Z,0.60
2022-12-31T04:41:20.863Z,0.50
2022-12-31T04:42:22.530Z,0.50
2022-12-31T04:43:24.165Z,0.50
2022-12-31T04:44:25.741Z,0.50
2022-12-31T04:45:27.365Z,0.50
2022-12-31T04:46:33.639Z,0.50
2022-12-31T04:47:35.228Z,0.50
2022-12-31T04:48:37.152Z,0.40
2022-12-31T04:49:38.757Z,0.50
2022-12-31T04:50:40.353Z,0.50
2022-12-31T04:51:42.023Z,0.50
2022-12-31T04:52:43.657Z,0.40
2022-12-31T04:53:45.245Z,0.50
2022-12-31T04:54:46.923Z,0.50
2022-12-31T04:55:48.504Z,0.50
2022-12-31T04:56:50.322Z,0.40
2022-12-31T04:57:51.903Z,0.40
2022-12-31T04:58:53.541Z,0.40
2022-12-31T04:59:55.119Z,0.50
2022-12-31T05:00:56.880Z,0.50
2022-12-31T05:01:58.693Z,0.40
2022-12-31T05:03:00.440Z,0.53
2022-12-31T05:04:02.041Z,0.50
2022-12-31T05:05:03.741Z,0.40
2022-12-31T05:06:09.127Z,0.50
2022-12-31T05:07:10.733Z,0.50
2022-12-31T05:08:13.426Z,0.50
2022-12-31T05:09:14.997Z,0.50
2022-12-31T05:10:16.601Z,0.40
2022-12-31T05:11:18.148Z,0.50
2022-12-31T05:12:19.849Z,0.50
2022-12-31T05:13:21.874Z,0.40
2022-12-31T05:14:23.556Z,0.50
2022-12-31T05:15:25.127Z,0.50
2022-12-31T05:16:26.727Z,0.40
2022-12-31T05:17:28.316Z,0.40
2022-12-31T05:18:31.096Z,0.40
2022-12-31T05:19:32.656Z,0.50
2022-12-31T05:20:34.756Z,0.50
2022-12-31T05:21:36.601Z,0.40
2022-12-31T05:22:38.196Z,0.40
2022-12-31T05:23:39.784Z,0.40
2022-12-31T05:24:41.334Z,0.40
2022-12-31T05:25:44.823Z,0.40
2022-12-31T05:26:46.388Z,0.67
2022-12-31T05:27:47.986Z,0.40
2022-12-31T05:28:49.556Z,0.50
2022-12-31T05:29:51.198Z,0.50
2022-12-31T05:30:52.934Z,0.40
2022-12-31T05:31:54.619Z,0.50
2022-12-31T05:32:56.636Z,0.40
2022-12-31T05:33:58.175Z,0.40
2022-12-31T05:34:59.972Z,0.60
2022-12-31T05:36:01.564Z,0.50
2022-12-31T05:37:03.203Z,0.43
2022-12-31T05:38:05.051Z,0.40
2022-12-31T05:39:06.631Z,0.50
2022-12-31T05:40:08.794Z,0.50
2022-12-31T05:41:11.341Z,0.50
2022-12-31T05:42:12.975Z,0.43
2022-12-31T05:43:14.546Z,0.50
2022-12-31T05:44:16.105Z,0.40
2022-12-31T05:45:18.477Z,0.50
2022-12-31T05:46:20.161Z,0.50
2022-12-31T05:47:21.776Z,0.50
2022-12-31T05:48:23.521Z,0.80
2022-12-31T05:49:25.060Z,0.40
2022-12-31T05:50:26.705Z,0.53
2022-12-31T05:51:28.303Z,0.40
2022-12-31T05:52:29.967Z,0.50
2022-12-31T05:53:31.606Z,0.40
2022-12-31T05:54:33.503Z,0.60
2022-12-31T05:55:35.060Z,0.40
2022-12-31T05:56:36.629Z,0.40
2022-12-31T05:57:38.686Z,0.50
2022-12-31T05:58:40.430Z,0.40
2022-12-31T05:59:42.040Z,0.50
2022-12-31T06:00:43.870Z,0.50
2022-12-31T06:01:45.552Z,0.80
2022-12-31T06:02:47.196Z,0.50
2022-12-31T06:03:48.863Z,0.60
2022-12-31T06:04:50.465Z,0.67
2022-12-31T06:05:52.012Z,0.50
2022-12-31T06:06:53.619Z,0.40
2022-12-31T06:07:55.165Z,0.60
2022-12-31T06:08:56.760Z,0.60
2022-12-31T06:09:58.382Z,0.40
2022-12-31T06:10:59.921Z,0.60
2022-12-31T06:12:01.548Z,0.50
2022-12-31T06:13:03.394Z,0.50
2022-12-31T06:14:04.983Z,0.60
2022-12-31T06:15:07.471Z,0.50
2022-12-31T06:16:09.779Z,0.50
2022-12-31T06:17:11.429Z,0.52
2022-12-31T06:18:12.971Z,0.50
2022-12-31T06:19:14.737Z,0.60
2022-12-31T06:20:16.420Z,0.70
2022-12-31T06:21:19.573Z,0.67
2022-12-31T06:22:21.123Z,0.60
2022-12-31T06:23:22.670Z,0.50
2022-12-31T06:24:24.406Z,0.97
2022-12-31T06:25:26.160Z,0.53
2022-12-31T06:26:27.982Z,0.50
2022-12-31T06:27:29.628Z,0.50
2022-12-31T06:28:31.213Z,0.60
2022-12-31T06:29:32.856Z,0.67
2022-12-31T06:30:34.409Z,0.70
2022-12-31T06:31:37.113Z,0.50
2022-12-31T06:32:40.624Z,0.70
2022-12-31T06:33:42.351Z,0.50
2022-12-31T06:34:44.103Z,0.53
2022-12-31T06:35:45.698Z,0.50
2022-12-31T06:36:47.290Z,0.60
2022-12-31T06:37:48.868Z,0.60
2022-12-31T06:38:50.517Z,0.50
2022-12-31T06:39:52.097Z,0.60
2022-12-31T06:40:53.724Z,0.50
2022-12-31T06:41:55.315Z,0.57
2022-12-31T06:43:00.230Z,0.50
2022-12-31T06:44:02.172Z,0.57
2022-12-31T06:45:04.533Z,0.50
2022-12-31T06:46:08.533Z,0.50
2022-12-31T06:47:10.142Z,0.60
2022-12-31T06:48:12.211Z,0.47
2022-12-31T06:49:13.828Z,0.50
2022-12-31T06:50:15.497Z,0.50
2022-12-31T06:51:19.528Z,0.60
2022-12-31T06:52:21.562Z,0.63
2022-12-31T06:53:23.279Z,0.50
2022-12-31T06:54:24.877Z,0.50
2022-12-31T06:55:26.993Z,0.50
2022-12-31T06:56:33.932Z,0.50
2022-12-31T06:57:36.531Z,0.70
2022-12-31T06:58:38.435Z,0.80
2022-12-31T06:59:40.374Z,0.53
2022-12-31T07:00:56.304Z,0.50
2022-12-31T07:02:27.062Z,0.60
2022-12-31T07:03:40.146Z,0.50
2022-12-31T07:05:14.035Z,0.63
2022-12-31T07:06:21.918Z,0.60
2022-12-31T07:07:41.232Z,0.63
2022-12-31T07:08:48.615Z,0.70
2022-12-31T07:10:11.283Z,0.43
2022-12-31T07:11:38.869Z,1.00
2022-12-31T07:12:58.444Z,0.67
2022-12-31T07:14:25.992Z,0.60
2022-12-31T07:15:45.907Z,0.63
2022-12-31T07:17:03.402Z,0.80
2022-12-31T07:18:41.957Z,0.60
2022-12-31T07:20:11.330Z,0.60
2022-12-31T07:21:15.564Z,0.60
2022-12-31T07:22:17.587Z,0.60
2022-12-31T07:23:19.598Z,0.60
2022-12-31T07:24:21.562Z,0.70
2022-12-31T07:25:23.560Z,0.70
2022-12-31T07:26:51.129Z,0.60
2022-12-31T07:28:05.293Z,0.70
2022-12-31T07:29:26.494Z,0.70
2022-12-31T07:30:36.335Z,0.73
2022-12-31T07:32:05.131Z,0.70
2022-12-31T07:33:41.054Z,0.60
2022-12-31T07:35:11.755Z,0.70
2022-12-31T07:36:32.779Z,0.70
2022-12-31T07:37:46.634Z,0.60
2022-12-31T07:39:03.711Z,0.70
2022-12-31T07:40:38.586Z,0.60
2022-12-31T07:42:05.031Z,0.70
2022-12-31T07:43:22.507Z,0.60
2022-12-31T07:44:50.635Z,0.77
2022-12-31T07:46:13.263Z,0.80
2022-12-31T07:47:26.625Z,1.10
2022-12-31T07:48:29.286Z,0.80
2022-12-31T07:49:33.236Z,0.60
2022-12-31T07:50:35.066Z,0.67
2022-12-31T07:51:36.884Z,0.53
2022-12-31T07:52:38.777Z,0.70
2022-12-31T07:53:40.421Z,0.60
2022-12-31T07:54:42.017Z,0.70
2022-12-31T07:55:43.874Z,0.77
2022-12-31T07:56:46.336Z,0.70
2022-12-31T07:57:57.452Z,0.80
2022-12-31T07:59:36.686Z,0.60
2022-12-31T08:00:38.390Z,0.80
2022-12-31T08:02:05.951Z,0.67
2022-12-31T08:03:38.617Z,0.70
2022-12-31T08:04:54.124Z,0.50
2022-12-31T08:06:11.367Z,0.80
2022-12-31T08:07:36.492Z,0.60
2022-12-31T08:08:48.929Z,0.60
2022-12-31T08:10:13.992Z,0.60
2022-12-31T08:11:28.803Z,0.80
2022-12-31T08:12:34.836Z,0.60
2022-12-31T08:13:37.028Z,0.80
2022-12-31T08:14:44.795Z,0.70
2022-12-31T08:15:46.596Z,0.70
2022-12-31T08:16:48.604Z,0.60
2022-12-31T08:17:50.401Z,0.70
2022-12-31T08:18:52.429Z,0.50
2022-12-31T08:19:54.367Z,0.90
2022-12-31T08:21:17.950Z,0.50
2022-12-31T08:22:51.292Z,0.77
2022-12-31T08:24:08.266Z,0.50
2022-12-31T08:25:23.609Z,0.57
2022-12-31T08:26:53.163Z,0.90
2022-12-31T08:28:13.781Z,0.83
2022-12-31T08:29:24.111Z,0.70
2022-12-31T08:30:39.112Z,0.70
2022-12-31T08:31:55.789Z,0.70
2022-12-31T08:33:17.910Z,0.70
2022-12-31T08:34:44.585Z,0.70
2022-12-31T08:36:09.386Z,1.47
2022-12-31T08:37:16.416Z,0.60
2022-12-31T08:38:38.089Z,0.97
2022-12-31T08:40:06.484Z,0.97
2022-12-31T08:41:30.483Z,0.70
2022-12-31T08:43:05.376Z,0.63
2022-12-31T08:44:42.479Z,0.73
2022-12-31T08:45:52.770Z,1.00
2022-12-31T08:47:00.736Z,0.70
2022-12-31T08:48:32.691Z,0.70
2022-12-31T08:49:35.642Z,0.60
2022-12-31T08:50:37.349Z,0.70
2022-12-31T08:51:39.219Z,0.90
2022-12-31T08:52:41.258Z,0.70
2022-12-31T08:53:43.217Z,0.80
2022-12-31T08:54:45.099Z,0.80
2022-12-31T08:55:49.622Z,0.80
2022-12-31T08:57:15.580Z,0.70
2022-12-31T08:58:46.809Z,0.83
2022-12-31T09:00:10.524Z,0.70
2022-12-31T09:01:14.957Z,0.80
2022-12-31T09:02:56.693Z,0.60
2022-12-31T09:04:20.158Z,0.80
2022-12-31T09:05:29.412Z,1.03
2022-12-31T09:06:48.309Z,0.90
2022-12-31T09:08:11.078Z,0.83
2022-12-31T09:09:45.279Z,0.70
2022-12-31T09:11:01.379Z,0.70
2022-12-31T09:12:20.329Z,0.93
2022-12-31T09:13:53.515Z,3.10
2022-12-31T09:15:09.108Z,0.97
2022-12-31T09:16:36.037Z,0.83
2022-12-31T09:17:49.206Z,0.80
2022-12-31T09:18:50.826Z,1.00
2022-12-31T09:19:52.638Z,0.80
2022-12-31T09:20:54.395Z,0.90
2022-12-31T09:21:56.276Z,1.00
2022-12-31T09:23:01.544Z,1.10
2022-12-31T09:24:09.127Z,0.70
2022-12-31T09:25:17.865Z,1.20
2022-12-31T09:26:36.572Z,0.77
2022-12-31T09:28:01.434Z,0.70
2022-12-31T09:29:08.050Z,0.87
2022-12-31T09:30:13.236Z,1.23
2022-12-31T09:31:21.650Z,1.00
2022-12-31T09:32:43.315Z,1.00
2022-12-31T09:34:14.159Z,0.90
2022-12-31T09:35:27.707Z,0.90
2022-12-31T09:36:34.332Z,1.60
2022-12-31T09:37:58.380Z,0.80
2022-12-31T09:39:31.030Z,1.00
2022-12-31T09:40:47.983Z,0.93
2022-12-31T09:42:29.911Z,1.10
2022-12-31T09:44:02.355Z,0.70
2022-12-31T09:45:30.284Z,0.90
2022-12-31T09:46:53.077Z,0.80
2022-12-31T09:48:30.615Z,0.87
2022-12-31T09:50:02.585Z,0.90
2022-12-31T09:51:32.497Z,0.80
2022-12-31T09:53:13.313Z,0.70
2022-12-31T09:54:32.457Z,0.77
2022-12-31T09:55:45.737Z,0.97
2022-12-31T09:57:02.166Z,0.87
2022-12-31T09:58:27.972Z,1.77
2022-12-31T09:59:51.068Z,0.80
2022-12-31T10:01:13.775Z,0.80
2022-12-31T10:02:42.940Z,0.90
2022-12-31T10:04:06.504Z,0.97
2022-12-31T10:05:19.818Z,0.93
2022-12-31T10:06:38.482Z,1.23
2022-12-31T10:07:59.591Z,0.70
2022-12-31T10:09:25.159Z,0.90
2022-12-31T10:10:37.419Z,0.90
2022-12-31T10:11:44.987Z,1.00
2022-12-31T10:12:55.618Z,1.10
2022-12-31T10:14:12.754Z,0.70
2022-12-31T10:15:17.172Z,0.90
2022-12-31T10:17:00.985Z,1.10
2022-12-31T10:18:34.352Z,1.10
2022-12-31T10:20:11.876Z,1.00
2022-12-31T10:21:31.677Z,0.87
2022-12-31T10:23:07.455Z,1.43
2022-12-31T10:24:27.156Z,0.70
2022-12-31T10:25:59.587Z,0.70
2022-12-31T10:27:22.871Z,1.07
2022-12-31T10:28:35.461Z,0.80
2022-12-31T10:29:56.825Z,1.30
2022-12-31T10:31:22.102Z,0.90
2022-12-31T10:32:44.896Z,1.00
2022-12-31T10:34:13.242Z,0.80
2022-12-31T10:35:33.653Z,0.90
2022-12-31T10:36:53.840Z,1.37
2022-12-31T10:38:24.648Z,0.93
2022-12-31T10:39:49.816Z,1.00
2022-12-31T10:41:20.453Z,0.80
2022-12-31T10:42:50.306Z,0.83
2022-12-31T10:44:22.383Z,1.00
2022-12-31T10:45:43.596Z,1.10
2022-12-31T10:47:03.915Z,1.20
2022-12-31T10:48:23.220Z,1.10
2022-12-31T10:49:56.674Z,1.07
2022-12-31T10:51:20.750Z,1.20
2022-12-31T10:52:39.747Z,0.90
2022-12-31T10:54:13.192Z,1.17
2022-12-31T10:55:51.676Z,0.80
2022-12-31T10:57:30.625Z,1.07
2022-12-31T10:58:44.490Z,0.90
2022-12-31T11:00:23.846Z,1.00
2022-12-31T11:01:34.339Z,1.00
2022-12-31T11:03:13.963Z,1.27
2022-12-31T11:04:36.835Z,0.70
2022-12-31T11:05:49.451Z,0.80
2022-12-31T11:07:28.639Z,1.10
2022-12-31T11:09:07.461Z,0.80
2022-12-31T11:10:33.894Z,0.80
2022-12-31T11:11:44.866Z,0.83
2022-12-31T11:13:17.451Z,0.97
2022-12-31T11:14:49.872Z,1.07
2022-12-31T11:16:03.271Z,1.00
2022-12-31T11:17:19.852Z,1.37
2022-12-31T11:18:51.764Z,1.33
2022-12-31T11:20:23.648Z,1.00
2022-12-31T11:22:06.173Z,0.90
2022-12-31T11:23:31.229Z,1.17
2022-12-31T11:24:38.613Z,1.40
2022-12-31T11:25:54.344Z,0.90
2022-12-31T11:27:15.205Z,1.07
2022-12-31T11:28:54.248Z,2.57
2022-12-31T11:30:21.095Z,1.10
2022-12-31T11:31:22.725Z,1.00
2022-12-31T11:32:32.223Z,1.40
2022-12-31T11:34:03.954Z,1.00
2022-12-31T11:35:18.860Z,1.20
2022-12-31T11:36:59.664Z,1.30
2022-12-31T11:38:38.944Z,0.87
2022-12-31T11:39:52.509Z,0.90
2022-12-31T11:40:54.142Z,0.90
2022-12-31T11:42:04.762Z,1.00
2022-12-31T11:43:20.046Z,1.17
2022-12-31T11:44:32.274Z,1.20
2022-12-31T11:45:50.531Z,1.10
2022-12-31T11:47:02.930Z,0.80
2022-12-31T11:48:32.697Z,1.43
2022-12-31T11:49:55.256Z,1.10
2022-12-31T11:51:24.976Z,1.20
2022-12-31T11:52:46.801Z,1.27
2022-12-31T11:54:03.612Z,0.90
2022-12-31T11:55:35.183Z,0.90
2022-12-31T11:56:45.013Z,0.90
2022-12-31T11:57:51.548Z,1.00
2022-12-31T11:58:55.234Z,1.20
2022-12-31T12:00:00.278Z,0.90
2022-12-31T12:01:12.643Z,0.93
2022-12-31T12:02:32.097Z,1.20
2022-12-31T12:03:38.487Z,0.90
2022-12-31T12:04:40.345Z,1.20
2022-12-31T12:05:42.041Z,1.00
2022-12-31T12:06:45.891Z,1.07
2022-12-31T12:07:51.673Z,1.10
2022-12-31T12:08:59.377Z,1.00
2022-12-31T12:10:04.166Z,1.03
2022-12-31T12:11:08.134Z,1.00
2022-12-31T12:12:09.803Z,1.13
2022-12-31T12:13:21.614Z,0.90
2022-12-31T12:14:32.941Z,1.30
2022-12-31T12:15:35.655Z,1.00
2022-12-31T12:16:37.532Z,0.87
2022-12-31T12:17:39.969Z,0.90
2022-12-31T12:18:47.327Z,1.00
2022-12-31T12:19:56.505Z,1.00
2022-12-31T12:21:23.191Z,0.90
2022-12-31T12:22:26.557Z,0.93
2022-12-31T12:23:28.267Z,0.93
2022-12-31T12:24:30.697Z,0.80
2022-12-31T12:25:43.525Z,0.90
2022-12-31T12:26:45.551Z,0.90
2022-12-31T12:27:47.824Z,1.10
2022-12-31T12:28:49.401Z,0.90
2022-12-31T12:29:51.043Z,1.13
2022-12-31T12:31:02.239Z,1.20
2022-12-31T12:32:19.261Z,1.00
2022-12-31T12:33:21.364Z,1.07
2022-12-31T12:34:35.394Z,0.80
2022-12-31T12:35:37.076Z,1.10
2022-12-31T12:36:46.662Z,0.90
2022-12-31T12:38:03.463Z,1.20
2022-12-31T12:39:06.522Z,1.00
2022-12-31T12:40:20.473Z,1.13
2022-12-31T12:41:25.449Z,1.33
2022-12-31T12:42:28.508Z,1.00
2022-12-31T12:43:33.392Z,0.87
2022-12-31T12:44:35.796Z,0.90
2022-12-31T12:45:51.884Z,1.00
2022-12-31T12:46:55.140Z,0.90
2022-12-31T12:48:00.918Z,1.13
2022-12-31T12:49:04.012Z,1.00
2022-12-31T12:50:16.433Z,0.80
2022-12-31T12:51:47.388Z,1.07
2022-12-31T12:53:05.910Z,0.90
2022-12-31T12:54:37.213Z,0.93
2022-12-31T12:55:54.212Z,0.83
2022-12-31T12:57:16.596Z,0.90
2022-12-31T12:58:45.695Z,1.00
2022-12-31T13:00:01.498Z,1.00
2022-12-31T13:01:23.837Z,0.80
2022-12-31T13:02:37.311Z,1.00
2022-12-31T13:04:33.408Z,1.23
2022-12-31T13:05:43.762Z,0.90
2022-12-31T13:07:06.989Z,1.77
2022-12-31T13:08:19.973Z,1.00
2022-12-31T13:09:24.718Z,1.20
2022-12-31T13:10:47.200Z,1.00
2022-12-31T13:12:19.674Z,0.80
2022-12-31T13:13:48.731Z,0.80
2022-12-31T13:14:50.335Z,1.40
2022-12-31T13:16:07.865Z,0.97
2022-12-31T13:17:41.052Z,0.90
2022-12-31T13:19:27.206Z,1.00
2022-12-31T13:20:56.606Z,1.13
2022-12-31T13:22:04.064Z,0.90
2022-12-31T13:23:25.181Z,1.10
2022-12-31T13:24:57.171Z,1.03
2022-12-31T13:26:24.053Z,1.50
2022-12-31T13:27:37.464Z,1.20
2022-12-31T13:28:42.735Z,0.90
2022-12-31T13:29:47.149Z,0.90
2022-12-31T13:30:54.335Z,1.10
2022-12-31T13:31:56.967Z,1.20
2022-12-31T13:33:05.298Z,1.00
2022-12-31T13:34:30.196Z,1.03
2022-12-31T13:35:50.658Z,1.10
2022-12-31T13:36:54.215Z,1.20
2022-12-31T13:38:05.794Z,1.00
2022-12-31T13:39:23.438Z,2.20
2022-12-31T13:40:32.942Z,0.90
2022-12-31T13:41:48.351Z,1.20
2022-12-31T13:43:14.453Z,1.27
2022-12-31T13:44:29.126Z,1.23
2022-12-31T13:45:40.762Z,1.00
2022-12-31T13:46:48.333Z,2.00
2022-12-31T13:47:53.893Z,1.10
2022-12-31T13:49:04.956Z,1.33
2022-12-31T13:50:29.034Z,1.27
2022-12-31T13:51:51.446Z,0.80
2022-12-31T13:53:20.073Z,0.93
2022-12-31T13:54:38.162Z,1.40
2022-12-31T13:55:56.696Z,1.37
2022-12-31T13:57:04.494Z,0.90
2022-12-31T13:58:23.419Z,1.07
2022-12-31T13:59:33.885Z,1.13
2022-12-31T14:00:43.861Z,1.10
2022-12-31T14:01:57.820Z,1.10
2022-12-31T14:03:43.800Z,1.30
2022-12-31T14:04:51.937Z,1.23
2022-12-31T14:06:05.343Z,1.33
2022-12-31T14:07:53.789Z,1.07
2022-12-31T14:08:55.485Z,1.30
2022-12-31T14:09:58.335Z,1.00
2022-12-31T14:11:28.410Z,1.00
2022-12-31T14:12:46.393Z,1.20
2022-12-31T14:14:06.776Z,1.00
2022-12-31T14:15:21.204Z,1.07
2022-12-31T14:16:53.785Z,1.00
2022-12-31T14:18:22.462Z,0.90
2022-12-31T14:19:41.749Z,1.07
2022-12-31T14:20:51.573Z,1.20
2022-12-31T14:22:23.614Z,1.47
2022-12-31T14:23:46.367Z,1.27
2022-12-31T14:24:50.564Z,1.10
2022-12-31T14:26:07.351Z,1.10
2022-12-31T14:27:14.805Z,0.87
2022-12-31T14:28:26.271Z,1.37
2022-12-31T14:29:38.517Z,1.20
2022-12-31T14:30:44.228Z,0.90
2022-12-31T14:31:48.574Z,1.10
2022-12-31T14:33:02.221Z,1.07
2022-12-31T14:34:35.191Z,1.17
2022-12-31T14:36:10.164Z,1.17
2022-12-31T14:37:50.386Z,1.20
2022-12-31T14:39:29.416Z,1.00
2022-12-31T14:40:57.606Z,1.30
2022-12-31T14:42:20.107Z,0.97
2022-12-31T14:43:43.888Z,1.00
2022-12-31T14:45:02.787Z,1.10
2022-12-31T14:46:20.071Z,1.33
2022-12-31T14:47:31.895Z,1.10
2022-12-31T14:48:47.958Z,1.20
2022-12-31T14:50:23.479Z,1.20
2022-12-31T14:51:29.964Z,1.47
2022-12-31T14:52:47.983Z,1.30
2022-12-31T14:53:54.636Z,1.00
2022-12-31T14:55:26.036Z,0.93
2022-12-31T14:56:30.528Z,1.27
2022-12-31T14:58:01.412Z,1.23
2022-12-31T14:59:02.051Z,1.10
2022-12-31T15:00:33.789Z,1.20
2022-12-31T15:01:45.206Z,0.90
2022-12-31T15:02:56.982Z,1.23
2022-12-31T15:03:58.848Z,1.70
2022-12-31T15:05:12.512Z,1.13
2022-12-31T15:06:23.550Z,1.07
2022-12-31T15:07:52.294Z,1.30
2022-12-31T15:09:31.821Z,1.10
2022-12-31T15:10:48.584Z,1.00
2022-12-31T15:12:25.027Z,1.30
2022-12-31T15:13:55.975Z,1.53
2022-12-31T15:15:06.556Z,1.40
2022-12-31T15:16:31.939Z,1.23
2022-12-31T15:17:42.421Z,1.60
2022-12-31T15:18:52.480Z,1.27
2022-12-31T15:20:17.300Z,1.63
2022-12-31T15:21:34.241Z,1.27
2022-12-31T15:22:52.625Z,1.43
2022-12-31T15:23:55.060Z,1.30
2022-12-31T15:24:56.945Z,1.60
2022-12-31T15:26:00.811Z,1.03
2022-12-31T15:27:06.661Z,1.00
2022-12-31T15:28:31.797Z,1.10
2022-12-31T15:29:41.537Z,1.37
2022-12-31T15:30:48.279Z,1.63
2022-12-31T15:31:50.545Z,1.30
2022-12-31T15:32:54.858Z,1.47
2022-12-31T15:34:01.385Z,1.40
2022-12-31T15:35:22.729Z,1.30
2022-12-31T15:36:28.417Z,1.33
2022-12-31T15:37:35.300Z,1.40
2022-12-31T15:38:39.002Z,1.20
2022-12-31T15:39:42.640Z,1.40
2022-12-31T15:40:51.888Z,1.70
2022-12-31T15:43:35.494Z,1.20
2022-12-31T15:44:55.155Z,1.80
2022-12-31T15:45:58.232Z,2.27
2022-12-31T15:47:14.487Z,2.10
2022-12-31T15:48:26.536Z,1.90